createdAt,value
2022-09-16T00:02:14.294Z,78.93
2022-09-16T00:04:43.470Z,79.27
2022-09-16T00:07:14.681Z,77.67
2022-09-16T00:09:48.315Z,79.57
2022-09-16T00:12:16.391Z,79.36
2022-09-16T00:14:44.431Z,77.93
2022-09-16T00:17:23.995Z,77.34
2022-09-16T00:19:52.181Z,79.09
2022-09-16T00:22:21.334Z,78.60
2022-09-16T00:24:49.899Z,80.76
2022-09-16T00:27:17.991Z,79.65
2022-09-16T00:29:46.196Z,76.91
2022-09-16T00:32:14.374Z,74.34
2022-09-16T00:34:46.096Z,79.24
2022-09-16T00:37:15.427Z,75.87
2022-09-16T00:39:43.784Z,77.41
2022-09-16T00:42:12.364Z,76.30
2022-09-16T00:45:04.469Z,75.22
2022-09-16T00:47:38.394Z,78.72
2022-09-16T00:50:36.550Z,77.35
2022-09-16T00:53:14.150Z,79.01
2022-09-16T00:55:45.433Z,79.94
2022-09-16T00:58:19.579Z,78.68
2022-09-16T01:00:51.319Z,77.47
2022-09-16T01:03:28.234Z,76.38
2022-09-16T01:05:56.385Z,81.59
2022-09-16T01:08:25.985Z,79.72
2022-09-16T01:10:54.048Z,80.41
2022-09-16T01:13:26.380Z,81.68
2022-09-16T01:16:04.555Z,82.42
2022-09-16T01:18:35.181Z,82.62
2022-09-16T01:21:05.957Z,83.19
2022-09-16T01:23:52.781Z,83.94
2022-09-16T01:26:27.944Z,80.74
2022-09-16T01:28:58.796Z,78.03
2022-09-16T01:31:40.043Z,79.80
2022-09-16T01:34:24.409Z,81.00
2022-09-16T01:37:13.108Z,82.62
2022-09-16T01:40:10.369Z,80.30
2022-09-16T01:42:38.505Z,80.75
2022-09-16T01:45:17.588Z,80.11
2022-09-16T01:48:06.597Z,78.61
2022-09-16T01:50:40.534Z,76.93
2022-09-16T01:53:17.147Z,80.12
2022-09-16T01:55:58.561Z,80.84
2022-09-16T01:58:43.736Z,79.68
2022-09-16T02:01:26.315Z,77.23
2022-09-16T02:04:00.618Z,80.18
2022-09-16T02:06:30.515Z,78.36
2022-09-16T02:09:05.308Z,79.75
2022-09-16T02:11:38.562Z,79.93
2022-09-16T02:14:16.115Z,79.50
2022-09-16T02:16:58.586Z,79.95
2022-09-16T02:19:37.982Z,79.36
2022-09-16T02:22:09.543Z,79.67
2022-09-16T02:24:39.599Z,79.48
2022-09-16T02:27:10.911Z,81.77
2022-09-16T02:29:44.354Z,81.79
2022-09-16T02:32:21.654Z,83.84
2022-09-16T02:34:51.635Z,82.67
2022-09-16T02:37:24.250Z,84.62
2022-09-16T02:39:59.834Z,83.00
2022-09-16T02:42:28.973Z,83.66
2022-09-16T02:45:00.844Z,83.41
2022-09-16T02:47:35.521Z,83.39
2022-09-16T02:50:35.031Z,81.44
2022-09-16T02:53:08.073Z,83.67
2022-09-16T02:55:44.877Z,81.86
2022-09-16T02:58:13.111Z,82.35
2022-09-16T03:00:49.422Z,83.64
2022-09-16T03:03:17.722Z,83.32
2022-09-16T03:06:01.335Z,85.24
2022-09-16T03:08:29.426Z,83.59
2022-09-16T03:10:59.258Z,82.59
2022-09-16T03:13:40.797Z,81.59
2022-09-16T03:16:33.025Z,82.56
2022-09-16T03:19:24.220Z,82.72
2022-09-16T03:22:11.825Z,80.50
2022-09-16T03:24:44.576Z,80.70
2022-09-16T03:27:16.965Z,82.14
2022-09-16T03:29:57.741Z,81.16
2022-09-16T03:32:33.588Z,79.80
2022-09-16T03:35:20.393Z,81.10
2022-09-16T03:37:53.091Z,81.91
2022-09-16T03:40:21.550Z,84.16
2022-09-16T03:42:53.783Z,83.26
2022-09-16T03:45:26.483Z,86.21
2022-09-16T03:48:00.303Z,82.60
2022-09-16T03:50:29.526Z,84.99
2022-09-16T03:53:02.678Z,86.69
2022-09-16T03:55:30.732Z,84.58
2022-09-16T03:58:02.449Z,83.03
2022-09-16T04:00:35.314Z,81.85
2022-09-16T04:03:12.558Z,81.40
2022-09-16T04:05:42.895Z,82.66
2022-09-16T04:08:15.051Z,82.90
2022-09-16T04:10:52.852Z,80.98
2022-09-16T04:13:34.706Z,80.83
2022-09-16T04:16:08.477Z,82.54
2022-09-16T04:18:37.940Z,81.54
2022-09-16T04:21:10.413Z,82.28
2022-09-16T04:23:45.574Z,82.61
2022-09-16T04:26:21.712Z,84.34
2022-09-16T04:28:56.617Z,81.52
2022-09-16T04:31:25.981Z,81.05
2022-09-16T04:33:54.192Z,82.40
2022-09-16T04:36:23.115Z,84.53
2022-09-16T04:38:52.512Z,82.93
2022-09-16T04:41:30.814Z,84.23
2022-09-16T04:44:03.197Z,84.84
2022-09-16T04:46:59.943Z,84.22
2022-09-16T04:52:58.597Z,81.48
2022-09-16T07:51:52.060Z,29.71
2022-09-16T07:54:21.856Z,29.52
2022-09-16T07:57:13.330Z,28.34
2022-09-16T08:14:28.665Z,26.97
2022-09-16T08:16:56.726Z,27.71
2022-09-16T08:27:24.885Z,26.44
2022-09-16T08:30:11.200Z,26.81
2022-09-16T08:32:39.566Z,28.23
2022-09-16T08:35:09.501Z,28.39
2022-09-16T08:37:39.987Z,28.19
2022-09-16T08:40:19.067Z,28.10
2022-09-16T08:43:12.739Z,28.92
2022-09-16T08:45:51.094Z,28.19
2022-09-16T08:49:01.795Z,28.08
2022-09-16T08:51:55.481Z,28.31
2022-09-16T09:48:04.599Z,24.99
2022-09-16T09:51:03.961Z,23.91
2022-09-16T09:57:27.745Z,23.90
2022-09-16T10:03:56.329Z,23.87
2022-09-16T10:06:29.110Z,24.67
2022-09-16T10:17:19.946Z,23.43
2022-09-16T10:27:22.290Z,22.70
2022-09-16T10:30:42.740Z,22.20
2022-09-16T10:50:52.448Z,21.60
2022-09-16T10:53:30.684Z,22.87
2022-09-16T10:56:03.614Z,22.70
2022-09-16T10:58:32.515Z,22.77
2022-09-16T11:01:08.884Z,22.65
2022-09-16T11:03:55.871Z,23.43
2022-09-16T11:06:52.974Z,22.80
2022-09-16T11:09:36.648Z,23.88
2022-09-16T11:19:12.275Z,22.84
2022-09-16T11:22:16.737Z,22.31
2022-09-16T11:25:52.877Z,23.18
2022-09-16T11:29:27.391Z,24.37
2022-09-16T11:52:42.121Z,27.35
2022-09-16T11:55:28.357Z,27.98
2022-09-16T12:01:35.666Z,28.75
2022-09-16T12:04:13.849Z,28.29
2022-09-16T12:06:54.155Z,27.88
2022-09-16T12:09:27.225Z,27.60
2022-09-16T12:12:06.604Z,27.75
2022-09-16T12:14:38.215Z,28.13
2022-09-16T12:17:14.985Z,28.50
2022-09-16T12:20:03.566Z,28.88
2022-09-16T12:22:44.809Z,29.39
2022-09-16T12:25:17.636Z,29.81
2022-09-16T12:27:48.617Z,30.11
2022-09-16T12:30:20.749Z,30.24
2022-09-16T12:33:06.330Z,30.99
2022-09-16T12:35:38.188Z,31.25
2022-09-16T12:38:10.668Z,31.38
2022-09-16T12:40:49.006Z,31.44
2022-09-16T12:43:19.737Z,31.38
2022-09-16T12:46:35.781Z,31.60
2022-09-16T12:50:38.609Z,31.70
2022-09-16T12:54:05.521Z,32.59
2022-09-16T13:09:22.134Z,32.90
2022-09-16T13:12:39.215Z,33.15
2022-09-16T13:15:02.502Z,33.29
2022-09-16T13:17:39.387Z,32.95
2022-09-16T13:20:33.541Z,33.78
2022-09-16T13:23:08.428Z,33.32
2022-09-16T13:26:43.190Z,33.57
2022-09-16T13:29:30.707Z,33.67
2022-09-16T13:39:54.298Z,34.30
2022-09-16T13:43:33.078Z,34.59
2022-09-16T13:46:11.830Z,35.21
2022-09-16T13:48:44.507Z,35.34
2022-09-16T13:51:18.583Z,35.29
2022-09-16T13:57:45.756Z,35.61
2022-09-16T14:20:02.257Z,37.39
2022-09-16T15:12:09.981Z,41.37
2022-09-16T15:19:20.339Z,42.21
2022-09-16T15:22:05.566Z,42.97
2022-09-16T15:46:57.557Z,45.39
2022-09-16T15:53:24.509Z,45.99
2022-09-16T15:56:50.125Z,46.20
2022-09-16T15:59:26.089Z,45.44
2022-09-16T16:02:26.646Z,45.19
2022-09-16T16:05:05.518Z,46.28
2022-09-16T16:07:47.596Z,47.38
2022-09-16T16:10:19.199Z,46.88
2022-09-16T16:12:49.504Z,47.74
2022-09-16T16:15:20.404Z,46.84
2022-09-16T16:17:50.839Z,46.81
2022-09-16T16:20:21.144Z,46.46
2022-09-16T16:22:50.616Z,47.02
2022-09-16T16:25:21.348Z,47.20
2022-09-16T16:27:52.048Z,47.89
2022-09-16T16:30:24.809Z,47.76
2022-09-16T16:32:53.054Z,47.50
2022-09-16T16:35:21.367Z,47.70
2022-09-16T16:38:10.513Z,48.48
2022-09-16T16:40:54.001Z,48.40
2022-09-16T16:43:24.076Z,48.67
2022-09-16T16:45:57.190Z,48.94
2022-09-16T16:48:27.301Z,49.95
2022-09-16T16:51:08.898Z,49.64
2022-09-16T16:53:37.465Z,49.74
2022-09-16T16:56:14.485Z,50.49
2022-09-16T16:58:45.771Z,50.92
2022-09-16T17:01:18.574Z,51.17
2022-09-16T17:11:20.160Z,53.19
2022-09-16T17:13:58.328Z,56.92
2022-09-16T17:16:51.822Z,58.75
2022-09-16T17:19:20.149Z,60.62
2022-09-16T17:21:51.466Z,60.78
2022-09-16T17:24:20.172Z,63.93
2022-09-16T17:26:48.483Z,63.61
2022-09-16T17:29:36.724Z,66.68
2022-09-16T17:32:08.449Z,71.03
2022-09-16T17:50:23.086Z,72.45
2022-09-16T17:52:54.622Z,74.29
2022-09-16T17:55:48.957Z,75.63
2022-09-16T17:58:44.266Z,76.31
2022-09-16T18:01:40.353Z,76.05
2022-09-16T18:05:01.471Z,77.48
2022-09-16T18:07:58.266Z,77.76
2022-09-16T18:11:14.197Z,74.25
2022-09-16T18:13:44.044Z,74.30
2022-09-16T18:16:18.095Z,75.01
2022-09-16T18:18:50.097Z,76.08
2022-09-16T18:21:20.562Z,77.48
2022-09-16T18:24:14.735Z,76.72
2022-09-16T18:26:44.614Z,76.74
2022-09-16T18:29:14.051Z,75.67
2022-09-16T18:31:46.383Z,76.16
2022-09-16T18:34:17.897Z,76.12
2022-09-16T18:36:46.085Z,76.27
2022-09-16T18:39:15.380Z,79.08
2022-09-16T18:41:45.332Z,75.60
2022-09-16T18:44:21.060Z,76.11
2022-09-16T18:46:50.112Z,78.65
2022-09-16T18:49:24.348Z,77.48
2022-09-16T18:51:53.822Z,77.12
2022-09-16T18:54:44.201Z,78.47
2022-09-16T18:57:32.853Z,79.74
2022-09-16T19:00:01.885Z,81.91
2022-09-16T19:16:37.306Z,83.18
2022-09-16T19:19:08.782Z,86.52
2022-09-16T19:21:46.420Z,88.89
2022-09-16T19:27:48.382Z,84.50
2022-09-16T19:30:50.332Z,85.81
2022-09-16T19:33:19.461Z,89.28
2022-09-16T19:35:47.960Z,90.16
2022-09-16T19:42:29.573Z,85.67
2022-09-16T19:44:57.833Z,86.99
2022-09-16T19:47:26.669Z,88.74
2022-09-16T19:57:33.059Z,91.86
2022-09-16T20:00:02.047Z,89.29
2022-09-16T20:02:42.943Z,87.29
2022-09-16T20:05:13.764Z,88.58
2022-09-16T20:07:41.895Z,90.54
2022-09-16T20:10:10.216Z,89.48
2022-09-16T20:12:42.910Z,87.78
2022-09-16T20:15:12.338Z,87.25
2022-09-16T20:17:40.490Z,86.95
2022-09-16T20:20:09.053Z,86.19
2022-09-16T20:22:37.141Z,86.35
2022-09-16T20:25:22.597Z,84.68
2022-09-16T20:27:52.014Z,88.06
2022-09-16T20:30:20.051Z,87.68
2022-09-16T20:33:04.719Z,88.11
2022-09-16T20:35:34.213Z,90.35
2022-09-16T20:38:02.621Z,86.98
2022-09-16T20:40:32.435Z,82.47
2022-09-16T20:43:18.087Z,80.58
2022-09-16T20:45:46.605Z,80.83
2022-09-16T20:48:14.785Z,78.86
2022-09-16T20:51:24.442Z,82.12
2022-09-16T20:53:57.791Z,81.56
2022-09-16T20:56:37.967Z,81.97
2022-09-16T20:59:07.790Z,82.96
2022-09-16T21:01:38.387Z,80.95
2022-09-16T21:04:07.773Z,83.13
2022-09-16T21:06:37.567Z,80.15
2022-09-16T21:09:14.005Z,77.25
2022-09-16T21:11:45.358Z,76.65
2022-09-16T21:14:15.478Z,77.58
2022-09-16T21:16:45.732Z,78.29
2022-09-16T21:19:14.453Z,79.76
2022-09-16T21:21:46.560Z,79.85
2022-09-16T21:24:36.340Z,79.59
2022-09-16T21:27:04.800Z,81.07
2022-09-16T21:29:32.998Z,84.40
2022-09-16T21:32:01.386Z,84.54
2022-09-16T21:34:29.814Z,89.88
2022-09-16T21:36:59.661Z,91.04
2022-09-16T21:39:53.427Z,86.34
2022-09-16T21:42:36.118Z,89.92
2022-09-16T21:45:06.235Z,89.74
2022-09-16T21:47:34.445Z,83.77
2022-09-16T21:50:05.400Z,83.75
2022-09-16T21:52:33.961Z,86.11
2022-09-16T21:55:03.189Z,85.71
2022-09-16T21:57:42.972Z,81.97
2022-09-16T22:00:16.303Z,86.60
2022-09-16T22:02:54.557Z,87.18
2022-09-16T22:05:46.800Z,85.32
2022-09-16T22:08:16.116Z,88.60
2022-09-16T22:10:45.321Z,88.06
2022-09-16T22:13:13.333Z,88.69
2022-09-16T22:15:49.154Z,90.15
2022-09-16T22:18:18.311Z,87.99
2022-09-16T22:21:06.078Z,86.82
2022-09-16T22:23:34.704Z,87.72
2022-09-16T22:26:12.899Z,87.87
2022-09-16T22:28:41.620Z,89.85
2022-09-16T22:31:09.657Z,91.81
2022-09-16T22:33:39.597Z,90.94
2022-09-16T22:36:10.129Z,89.81
2022-09-16T22:38:38.430Z,86.74
2022-09-16T22:41:07.755Z,88.45
2022-09-16T22:43:40.892Z,88.92
2022-09-16T22:46:10.156Z,88.61
2022-09-16T22:48:39.002Z,88.61
2022-09-16T22:51:08.325Z,88.45
2022-09-16T22:53:37.850Z,88.68
2022-09-16T22:56:26.868Z,87.83
2022-09-16T22:58:55.505Z,86.18
2022-09-16T23:01:25.540Z,89.71
2022-09-16T23:03:58.027Z,90.69
2022-09-16T23:06:27.105Z,89.42
2022-09-16T23:08:55.146Z,88.46
2022-09-16T23:11:26.970Z,83.63
2022-09-16T23:13:55.825Z,83.57
2022-09-16T23:16:28.823Z,85.08
2022-09-16T23:18:58.087Z,85.66
2022-09-16T23:21:27.689Z,84.87
2022-09-16T23:23:56.675Z,87.20
2022-09-16T23:26:29.951Z,88.18
2022-09-16T23:28:59.005Z,89.39
2022-09-16T23:31:28.963Z,86.67
2022-09-16T23:33:57.119Z,83.72
2022-09-16T23:36:26.234Z,81.51
2022-09-16T23:38:54.752Z,80.61
2022-09-16T23:41:24.837Z,84.10
2022-09-16T23:43:53.262Z,82.74
2022-09-16T23:46:23.114Z,83.51
2022-09-16T23:48:54.120Z,80.82
2022-09-16T23:51:28.078Z,79.85
2022-09-16T23:53:57.682Z,78.99
2022-09-16T23:56:26.132Z,82.88
2022-09-16T23:58:58.049Z,81.62
